Streator East, Illinois
Current Conditions -  °F | °C
As of 4:35 AM on Thursday 23 Oct 2014 (Local Time) from KPNT Reporting Station
Clear Clear  
Wind Chill: 32°   Ceiling: Unl
Heat Index: 32°   Visibility: 7mi
Dew Point: 31°   Wind: 3mph
Humidity: 97%   Direction: 130°SE
Pressure: 30.22"   Gusts: NA
Location:  41.1182°N, 88.8294°W
Report Text: KPNT 230935Z AUTO 13003KT 7SM CLR 00/00 A3022 RMK AO2 T00001004
Loading
Personal Weather Stations






























Interactive Weather Map
Tropical Storm Tracking
New forecast layout! Learn more

10-Day Weather Forecast

Advertisements
Track Severe Weather on mobile